createdAt,value
2022-10-17T00:01:04.710Z,102125.88
2022-10-17T00:03:33.127Z,102122.59
2022-10-17T00:06:09.468Z,102126.72
2022-10-17T00:08:38.552Z,102130.13
2022-10-17T00:11:09.811Z,102131.19
2022-10-17T00:13:37.373Z,102128.63
2022-10-17T00:16:05.490Z,102131.63
2022-10-17T00:18:33.178Z,102134.88
2022-10-17T00:21:00.626Z,102136.19
2022-10-17T00:23:30.401Z,102132.03
2022-10-17T00:26:02.637Z,102138.28
2022-10-17T00:28:30.570Z,102137.56
2022-10-17T00:31:00.351Z,102135.34
2022-10-17T00:33:29.632Z,102139.13
2022-10-17T00:36:07.727Z,102139.69
2022-10-17T00:38:37.063Z,102149.13
2022-10-17T00:41:05.358Z,102146.69
2022-10-17T00:43:57.374Z,102146.69
2022-10-17T00:46:30.774Z,102153.16
2022-10-17T00:49:02.645Z,102151.78
2022-10-17T00:51:41.974Z,102156.84
2022-10-17T00:54:16.146Z,102155.59
2022-10-17T00:56:47.133Z,102150.25
2022-10-17T00:59:17.766Z,102151.53
2022-10-17T01:01:55.333Z,102155.03
2022-10-17T01:04:23.205Z,102154.78
2022-10-17T01:06:51.221Z,102150.34
2022-10-17T01:09:19.342Z,102150.53
2022-10-17T01:11:54.379Z,102147.06
2022-10-17T01:14:21.807Z,102149.53
2022-10-17T01:17:02.373Z,102144.03
2022-10-17T01:19:35.929Z,102146.69
2022-10-17T01:22:12.673Z,102153.25
2022-10-17T01:24:54.667Z,102146.06
2022-10-17T01:27:44.623Z,102144.16
2022-10-17T01:30:30.762Z,102147.13
2022-10-17T01:33:06.155Z,102144.34
2022-10-17T01:36:05.884Z,102143.81
2022-10-17T01:38:49.183Z,102137.59
2022-10-17T01:41:29.058Z,102140.28
2022-10-17T01:44:04.644Z,102142.41
2022-10-17T01:46:40.138Z,102141.00
2022-10-17T01:49:11.646Z,102141.75
2022-10-17T01:51:47.676Z,102136.75
2022-10-17T01:54:21.891Z,102134.34
2022-10-17T01:56:53.659Z,102137.97
2022-10-17T01:59:26.547Z,102132.88
2022-10-17T02:01:57.884Z,102139.66
2022-10-17T02:04:26.764Z,102140.81
2022-10-17T02:06:54.549Z,102131.81
2022-10-17T02:09:26.375Z,102129.06
2022-10-17T02:12:33.082Z,102130.03
2022-10-17T02:15:15.492Z,102117.81
2022-10-17T02:17:50.485Z,102120.25
2022-10-17T02:20:25.780Z,102123.97
2022-10-17T02:23:09.542Z,102121.31
2022-10-17T02:25:44.007Z,102119.81
2022-10-17T02:28:33.776Z,102121.00
2022-10-17T02:31:04.311Z,102110.19
2022-10-17T02:33:37.468Z,102107.66
2022-10-17T02:36:11.663Z,102116.41
2022-10-17T02:38:40.760Z,102116.41
2022-10-17T02:41:14.102Z,102118.94
2022-10-17T02:43:45.363Z,102115.44
2022-10-17T02:46:21.292Z,102119.91
2022-10-17T02:49:23.371Z,102120.16
2022-10-17T02:52:15.995Z,102119.16
2022-10-17T02:54:58.320Z,102127.09
2022-10-17T02:57:36.670Z,102129.88
2022-10-17T03:00:07.725Z,102123.41
2022-10-17T03:02:49.514Z,102124.34
2022-10-17T03:05:24.081Z,102144.94
2022-10-17T03:07:52.860Z,102136.81
2022-10-17T03:10:21.611Z,102138.66
2022-10-17T03:12:49.904Z,102139.19
2022-10-17T03:15:17.575Z,102142.19
2022-10-17T03:20:19.086Z,102149.59
2022-10-17T03:22:47.291Z,102146.19
2022-10-17T03:25:15.305Z,102155.91
2022-10-17T03:27:43.850Z,102144.53
2022-10-17T03:30:11.742Z,102146.25
2022-10-17T03:32:39.503Z,102145.72
2022-10-17T03:35:08.405Z,102152.25
2022-10-17T03:37:40.083Z,102149.41
2022-10-17T03:40:08.844Z,102154.50
2022-10-17T03:42:37.677Z,102161.94
2022-10-17T03:45:05.971Z,102168.19
2022-10-17T03:47:34.685Z,102171.47
2022-10-17T03:50:02.746Z,102173.13
2022-10-17T03:52:33.500Z,102167.44
2022-10-17T03:55:02.606Z,102171.88
2022-10-17T03:57:31.048Z,102176.03
2022-10-17T03:59:59.972Z,102177.91
2022-10-17T04:02:27.768Z,102178.53
2022-10-17T04:04:55.670Z,102185.84
2022-10-17T04:07:23.634Z,102185.94
2022-10-17T04:09:51.223Z,102187.66
2022-10-17T04:12:20.742Z,102181.66
2022-10-17T04:14:48.580Z,102181.00
2022-10-17T04:17:17.367Z,102185.50
2022-10-17T04:19:46.631Z,102188.94
2022-10-17T04:22:16.832Z,102194.66
2022-10-17T04:24:44.854Z,102199.25
2022-10-17T04:27:24.974Z,102198.94
2022-10-17T04:29:52.744Z,102201.25
2022-10-17T04:32:25.910Z,102199.16
2022-10-17T04:35:07.795Z,102199.22
2022-10-17T04:37:35.390Z,102204.03
2022-10-17T04:40:09.363Z,102209.09
2022-10-17T04:42:37.187Z,102208.56
2022-10-17T04:45:06.457Z,102212.47
2022-10-17T04:47:35.577Z,102222.38
2022-10-17T04:50:04.639Z,102224.66
2022-10-17T04:52:37.481Z,102219.75
2022-10-17T04:55:06.183Z,102229.44
2022-10-17T04:57:35.794Z,102224.81
2022-10-17T05:00:16.582Z,102215.69
2022-10-17T05:03:00.188Z,102230.13
2022-10-17T05:05:29.160Z,102231.22
2022-10-17T05:07:58.305Z,102235.94
2022-10-17T05:10:30.740Z,102237.69
2022-10-17T05:12:59.992Z,102239.00
2022-10-17T05:15:31.509Z,102238.25
2022-10-17T05:17:59.125Z,102241.16
2022-10-17T05:20:28.772Z,102240.88
2022-10-17T05:22:58.530Z,102236.53
2022-10-17T05:25:29.316Z,102239.34
2022-10-17T05:27:56.923Z,102240.47
2022-10-17T05:30:24.728Z,102240.88
2022-10-17T05:32:57.334Z,102247.28
2022-10-17T05:35:25.816Z,102250.88
2022-10-17T05:37:53.882Z,102254.38
2022-10-17T05:40:22.996Z,102252.56
2022-10-17T05:42:53.543Z,102263.56
2022-10-17T05:45:23.294Z,102258.63
2022-10-17T05:47:52.112Z,102257.69
2022-10-17T05:50:22.074Z,102265.34
2022-10-17T05:53:02.637Z,102266.47
2022-10-17T05:55:30.411Z,102269.47
2022-10-17T05:58:00.925Z,102283.38
2022-10-17T06:00:33.779Z,102287.63
2022-10-17T06:03:01.303Z,102293.09
2022-10-17T06:05:28.927Z,102302.81
2022-10-17T06:08:01.124Z,102300.28
2022-10-17T06:10:31.958Z,102307.66
2022-10-17T06:13:00.901Z,102304.88
2022-10-17T06:15:28.740Z,102314.81
2022-10-17T06:18:02.113Z,102311.50
2022-10-17T06:20:29.500Z,102310.75
2022-10-17T06:22:57.062Z,102317.66
2022-10-17T06:25:43.206Z,102317.75
2022-10-17T06:28:11.473Z,102333.13
2022-10-17T06:30:40.589Z,102327.34
2022-10-17T06:33:08.346Z,102331.88
2022-10-17T06:35:37.209Z,102329.81
2022-10-17T06:38:05.108Z,102328.78
2022-10-17T06:40:34.457Z,102332.47
2022-10-17T06:43:02.532Z,102341.88
2022-10-17T06:45:52.840Z,102350.41
2022-10-17T06:48:40.383Z,102355.13
2022-10-17T06:51:38.339Z,102348.75
2022-10-17T06:54:09.245Z,102354.66
2022-10-17T06:56:48.744Z,102356.72
2022-10-17T06:59:31.283Z,102361.19
2022-10-17T07:02:10.389Z,102358.28
2022-10-17T07:04:39.331Z,102367.13
2022-10-17T07:07:06.895Z,102366.44
2022-10-17T07:09:35.424Z,102368.56
2022-10-17T07:12:03.476Z,102368.72
2022-10-17T07:14:32.108Z,102364.28
2022-10-17T07:17:02.281Z,102368.66
2022-10-17T07:19:32.676Z,102364.78
2022-10-17T07:22:01.289Z,102365.63
2022-10-17T07:24:30.996Z,102362.00
2022-10-17T07:27:06.458Z,102366.28
2022-10-17T07:29:34.296Z,102362.28
2022-10-17T07:32:08.710Z,102364.69
2022-10-17T07:34:36.790Z,102368.09
2022-10-17T07:37:16.252Z,102365.56
2022-10-17T07:39:56.627Z,102367.88
2022-10-17T07:42:24.305Z,102362.28
2022-10-17T07:44:51.876Z,102371.16
2022-10-17T07:47:21.842Z,102374.44
2022-10-17T07:49:50.391Z,102365.19
2022-10-17T07:52:18.866Z,102372.28
2022-10-17T07:54:46.340Z,102375.53
2022-10-17T07:57:13.871Z,102378.25
2022-10-17T07:59:41.909Z,102374.00
2022-10-17T08:02:25.769Z,102371.69
2022-10-17T08:04:54.086Z,102370.34
2022-10-17T08:07:25.318Z,102359.81
2022-10-17T08:09:56.572Z,102361.63
2022-10-17T08:12:25.983Z,102364.28
2022-10-17T08:14:53.723Z,102369.41
2022-10-17T08:17:21.734Z,102362.47
2022-10-17T08:19:49.594Z,102364.81
2022-10-17T08:22:17.045Z,102367.84
2022-10-17T08:24:46.247Z,102368.69
2022-10-17T08:27:14.519Z,102365.31
2022-10-17T08:29:42.243Z,102373.97
2022-10-17T08:32:10.460Z,102365.13
2022-10-17T08:34:38.857Z,102363.41
2022-10-17T08:37:06.561Z,102363.69
2022-10-17T08:39:34.107Z,102363.38
2022-10-17T08:42:04.752Z,102369.88
2022-10-17T08:44:47.638Z,102369.50
2022-10-17T08:47:23.426Z,102368.72
2022-10-17T08:49:58.352Z,102364.09
2022-10-17T08:52:42.834Z,102356.59
2022-10-17T08:55:45.312Z,102361.94
2022-10-17T08:58:15.440Z,102363.31
2022-10-17T09:01:29.168Z,102367.19
2022-10-17T09:04:11.808Z,102365.47
2022-10-17T09:06:44.983Z,102358.56
2022-10-17T09:09:49.982Z,102357.94
2022-10-17T09:12:24.875Z,102360.78
2022-10-17T09:15:29.544Z,102363.88
2022-10-17T09:18:00.358Z,102370.09
2022-10-17T09:20:37.239Z,102355.16
2022-10-17T09:23:16.809Z,102365.06
2022-10-17T09:25:47.512Z,102359.09
2022-10-17T09:28:24.391Z,102364.63
2022-10-17T09:31:03.567Z,102357.69
2022-10-17T09:33:55.883Z,102358.78
2022-10-17T09:36:28.848Z,102359.38
2022-10-17T09:39:07.721Z,102356.53
2022-10-17T09:41:51.160Z,102362.25
2022-10-17T09:44:24.655Z,102358.19
2022-10-17T09:47:10.945Z,102360.53
2022-10-17T09:49:44.302Z,102361.00
2022-10-17T09:52:18.423Z,102355.31
2022-10-17T09:54:49.599Z,102360.97
2022-10-17T09:57:20.396Z,102360.75
2022-10-17T10:00:00.283Z,102363.84
2022-10-17T10:02:32.644Z,102357.28
2022-10-17T10:05:07.279Z,102364.75
2022-10-17T10:07:39.361Z,102360.38
2022-10-17T10:10:24.096Z,102367.47
2022-10-17T10:13:13.275Z,102360.63
2022-10-17T10:15:43.734Z,102356.75
2022-10-17T10:18:35.845Z,102352.53
2022-10-17T10:21:09.343Z,102357.06
2022-10-17T10:23:40.613Z,102352.97
2022-10-17T10:26:23.244Z,102366.88
2022-10-17T10:29:20.637Z,102357.84
2022-10-17T10:31:49.814Z,102357.09
2022-10-17T10:34:29.358Z,102349.31
2022-10-17T10:36:59.667Z,102346.75
2022-10-17T10:39:30.033Z,102342.31
2022-10-17T10:41:58.365Z,102343.22
2022-10-17T10:44:28.964Z,102342.13
2022-10-17T10:47:16.061Z,102343.44
2022-10-17T10:49:44.873Z,102352.31
2022-10-17T10:52:25.634Z,102349.94
2022-10-17T10:55:35.136Z,102349.94
2022-10-17T10:58:27.641Z,102350.34
2022-10-17T11:00:56.726Z,102351.25
2022-10-17T11:03:36.313Z,102347.22
2022-10-17T11:06:11.781Z,102343.25
2022-10-17T11:08:46.375Z,102338.25
2022-10-17T11:11:23.862Z,102339.53
2022-10-17T11:14:00.556Z,102337.41
2022-10-17T11:16:33.533Z,102336.34
2022-10-17T11:19:15.949Z,102332.81
2022-10-17T11:22:01.236Z,102337.63
2022-10-17T11:24:37.693Z,102339.94
2022-10-17T11:27:07.588Z,102329.66
2022-10-17T11:29:39.366Z,102337.50
2022-10-17T11:32:23.076Z,102328.22
2022-10-17T11:34:57.008Z,102326.19
2022-10-17T11:37:30.635Z,102317.88
2022-10-17T11:40:19.148Z,102316.38
2022-10-17T11:43:01.501Z,102314.44
2022-10-17T11:45:36.093Z,102306.41
2022-10-17T11:48:27.189Z,102306.09
2022-10-17T11:54:11.049Z,102302.50
2022-10-17T11:56:47.304Z,102305.75
2022-10-17T11:59:20.852Z,102300.97
2022-10-17T12:02:05.042Z,102294.50
2022-10-17T12:04:50.958Z,102292.25
2022-10-17T12:07:37.810Z,102303.84
2022-10-17T12:10:40.542Z,102300.28
2022-10-17T12:13:26.830Z,102292.59
2022-10-17T12:15:59.015Z,102293.41
2022-10-17T12:18:29.939Z,102302.53
2022-10-17T12:20:59.912Z,102279.13
2022-10-17T12:23:29.466Z,102287.81
2022-10-17T12:26:04.897Z,102288.66
2022-10-17T12:28:37.238Z,102282.53
2022-10-17T12:31:10.193Z,102301.31
2022-10-17T12:33:49.428Z,102290.25
2022-10-17T12:36:17.177Z,102280.63
2022-10-17T12:38:50.058Z,102283.00
2022-10-17T12:41:40.768Z,102275.84
2022-10-17T12:44:15.206Z,102276.97
2022-10-17T12:46:48.304Z,102285.50
2022-10-17T12:49:46.381Z,102272.97
2022-10-17T12:52:32.430Z,102269.91
2022-10-17T12:55:12.137Z,102272.06
2022-10-17T12:57:55.752Z,102274.59
2022-10-17T13:00:29.004Z,102279.81
2022-10-17T13:03:13.862Z,102267.22
2022-10-17T13:05:45.987Z,102257.13
2022-10-17T13:08:24.635Z,102256.16
2022-10-17T13:10:54.553Z,102252.41
2022-10-17T13:13:26.508Z,102255.31
2022-10-17T13:15:55.684Z,102252.63
2022-10-17T13:18:26.803Z,102260.56
2022-10-17T13:21:05.570Z,102249.69
2022-10-17T13:23:38.573Z,102245.66
2022-10-17T13:26:16.055Z,102249.91
2022-10-17T13:28:44.509Z,102247.22
2022-10-17T13:31:30.206Z,102238.34
2022-10-17T13:34:00.632Z,102235.63
2022-10-17T13:36:29.790Z,102240.41
2022-10-17T13:39:00.658Z,102244.28
2022-10-17T13:41:35.937Z,102240.63
2022-10-17T13:44:12.974Z,102246.41
2022-10-17T13:46:41.671Z,102235.22
2022-10-17T13:49:15.364Z,102227.56
2022-10-17T13:51:49.367Z,102230.97
2022-10-17T13:54:30.832Z,102225.88
2022-10-17T13:57:00.230Z,102233.16
2022-10-17T13:59:40.633Z,102241.66
2022-10-17T14:02:21.577Z,102229.75
2022-10-17T14:05:17.782Z,102233.94
2022-10-17T14:08:10.185Z,102233.81
2022-10-17T14:10:40.267Z,102228.72
2022-10-17T14:13:18.114Z,102224.03
2022-10-17T14:15:46.221Z,102221.38
2022-10-17T14:18:19.761Z,102222.31
2022-10-17T14:21:29.226Z,102221.63
2022-10-17T14:23:43.133Z,102212.72
2022-10-17T14:26:23.922Z,102211.00
2022-10-17T14:29:07.791Z,102223.44
2022-10-17T14:31:37.610Z,102221.25
2022-10-17T14:34:05.655Z,102212.16
2022-10-17T14:36:42.266Z,102216.03
2022-10-17T14:39:23.909Z,102216.28
2022-10-17T14:41:52.820Z,102226.63
2022-10-17T14:44:38.629Z,102223.94
2022-10-17T14:47:42.134Z,102227.09
2022-10-17T14:50:24.308Z,102215.28
2022-10-17T14:53:12.864Z,102223.31
2022-10-17T14:55:41.091Z,102220.91
2022-10-17T14:58:23.018Z,102220.41
2022-10-17T15:00:50.559Z,102217.13
2022-10-17T15:03:19.442Z,102221.69
2022-10-17T15:05:48.846Z,102217.72
2022-10-17T15:08:19.090Z,102223.06
2022-10-17T15:10:48.754Z,102224.63
2022-10-17T15:13:27.623Z,102215.78
2022-10-17T15:15:56.962Z,102222.28
2022-10-17T15:18:24.471Z,102224.28
2022-10-17T15:20:59.791Z,102228.44
2022-10-17T15:23:32.695Z,102218.59
2022-10-17T15:26:01.885Z,102217.09
2022-10-17T15:28:29.889Z,102219.75
2022-10-17T15:30:57.548Z,102216.31
2022-10-17T15:33:25.320Z,102226.28
2022-10-17T15:35:52.991Z,102223.28
2022-10-17T15:38:20.910Z,102224.78
2022-10-17T15:40:52.077Z,102219.59
2022-10-17T15:43:20.332Z,102213.22
2022-10-17T15:45:48.308Z,102225.28
2022-10-17T15:48:29.882Z,102221.69
2022-10-17T15:50:57.694Z,102218.84
2022-10-17T15:53:25.247Z,102224.75
2022-10-17T15:55:52.815Z,102223.91
2022-10-17T15:58:20.532Z,102220.66
2022-10-17T16:00:49.344Z,102223.78
2022-10-17T16:03:17.024Z,102232.44
2022-10-17T16:05:44.617Z,102226.44
2022-10-17T16:08:12.244Z,102238.81
2022-10-17T16:10:41.244Z,102237.13
2022-10-17T16:13:23.376Z,102239.84
2022-10-17T16:15:50.957Z,102237.25
2022-10-17T16:18:18.664Z,102239.94
2022-10-17T16:20:46.809Z,102241.34
2022-10-17T16:23:15.577Z,102242.63
2022-10-17T16:25:43.963Z,102233.38
2022-10-17T16:28:12.081Z,102232.97
2022-10-17T16:30:43.023Z,102240.59
2022-10-17T16:33:10.851Z,102244.00
2022-10-17T16:35:39.837Z,102246.00
2022-10-17T16:38:08.201Z,102242.63
2022-10-17T16:40:39.932Z,102247.13
2022-10-17T16:43:11.464Z,102238.84
2022-10-17T16:45:39.177Z,102251.94
2022-10-17T16:48:07.061Z,102252.31
2022-10-17T16:50:35.787Z,102244.16
2022-10-17T16:53:04.328Z,102253.25
2022-10-17T16:55:32.058Z,102246.22
2022-10-17T16:58:00.182Z,102250.41
2022-10-17T17:00:28.102Z,102257.13
2022-10-17T17:02:55.688Z,102259.38
2022-10-17T17:05:23.317Z,102252.00
2022-10-17T17:07:51.308Z,102254.56
2022-10-17T17:10:18.796Z,102257.34
2022-10-17T17:12:46.660Z,102263.78
2022-10-17T17:15:14.384Z,102260.09
2022-10-17T17:17:50.445Z,102255.69
2022-10-17T17:20:20.497Z,102259.47
2022-10-17T17:22:50.786Z,102262.78
2022-10-17T17:25:18.312Z,102263.88
2022-10-17T17:27:45.808Z,102262.13
2022-10-17T17:30:13.324Z,102269.44
2022-10-17T17:32:40.821Z,102259.38
2022-10-17T17:35:09.861Z,102253.38
2022-10-17T17:37:37.625Z,102256.72
2022-10-17T17:40:06.236Z,102264.03
2022-10-17T17:42:33.816Z,102252.91
2022-10-17T17:45:01.832Z,102255.38
2022-10-17T17:47:30.154Z,102261.66
2022-10-17T17:49:57.917Z,102254.31
2022-10-17T17:52:25.474Z,102258.88
2022-10-17T17:54:53.465Z,102255.63
2022-10-17T17:57:21.502Z,102260.22
2022-10-17T17:59:49.869Z,102265.81
2022-10-17T18:02:17.652Z,102262.81
2022-10-17T18:04:45.324Z,102270.47
2022-10-17T18:07:13.249Z,102268.66
2022-10-17T18:09:40.694Z,102266.84
2022-10-17T18:12:08.593Z,102273.47
2022-10-17T18:14:36.209Z,102279.03
2022-10-17T18:17:04.732Z,102280.53
2022-10-17T18:19:32.255Z,102271.22
2022-10-17T18:22:00.674Z,102278.72
2022-10-17T18:24:28.500Z,102282.41
2022-10-17T18:26:59.738Z,102279.38
2022-10-17T18:29:29.498Z,102272.50
2022-10-17T18:31:57.458Z,102279.53
2022-10-17T18:34:25.679Z,102284.75
2022-10-17T18:36:56.600Z,102289.56
2022-10-17T18:39:24.342Z,102287.53
2022-10-17T18:41:52.005Z,102287.75
2022-10-17T18:44:20.221Z,102289.94
2022-10-17T18:46:47.914Z,102285.81
2022-10-17T18:49:18.985Z,102292.94
2022-10-17T18:51:47.024Z,102292.38
2022-10-17T18:54:20.343Z,102292.72
2022-10-17T18:56:52.967Z,102287.97
2022-10-17T18:59:21.794Z,102290.97
2022-10-17T19:01:50.536Z,102292.31
2022-10-17T19:04:18.285Z,102298.47
2022-10-17T19:06:46.216Z,102298.97
2022-10-17T19:09:15.758Z,102293.72
2022-10-17T19:11:43.782Z,102294.91
2022-10-17T19:14:13.542Z,102300.34
2022-10-17T19:16:47.231Z,102297.06
2022-10-17T19:19:18.606Z,102302.22
2022-10-17T19:21:47.448Z,102295.22
2022-10-17T19:24:27.490Z,102295.09
2022-10-17T19:26:57.905Z,102308.63
2022-10-17T19:29:31.234Z,102313.53
2022-10-17T19:31:59.617Z,102307.84
2022-10-17T19:34:28.155Z,102312.25
2022-10-17T19:36:56.357Z,102312.63
2022-10-17T19:39:25.236Z,102311.41
2022-10-17T19:41:53.583Z,102312.84
2022-10-17T19:44:21.216Z,102309.59
2022-10-17T19:46:49.465Z,102311.66
2022-10-17T19:49:18.257Z,102306.56
2022-10-17T19:51:46.232Z,102312.81
2022-10-17T19:54:16.520Z,102311.97
2022-10-17T19:56:44.603Z,102306.38
2022-10-17T19:59:14.101Z,102306.16
2022-10-17T20:01:42.591Z,102308.56
2022-10-17T20:04:11.729Z,102303.97
2022-10-17T20:06:40.414Z,102306.06
2022-10-17T20:09:13.943Z,102299.25
2022-10-17T20:11:45.073Z,102299.13
2022-10-17T20:14:12.672Z,102295.78
2022-10-17T20:16:40.558Z,102296.00
2022-10-17T20:19:11.271Z,102297.50
2022-10-17T20:21:40.014Z,102299.88
2022-10-17T20:24:09.811Z,102300.31
2022-10-17T20:26:39.156Z,102303.06
2022-10-17T20:29:11.886Z,102301.81
2022-10-17T20:31:41.896Z,102303.13
2022-10-17T20:34:12.070Z,102300.91
2022-10-17T20:36:40.352Z,102307.41
2022-10-17T20:39:08.819Z,102310.19
2022-10-17T20:41:36.372Z,102299.59
2022-10-17T20:44:04.643Z,102310.63
2022-10-17T20:46:37.287Z,102312.00
2022-10-17T20:49:06.840Z,102316.69
2022-10-17T20:51:34.418Z,102309.13
2022-10-17T20:54:02.757Z,102315.50
2022-10-17T20:56:31.938Z,102311.50
2022-10-17T20:59:01.238Z,102324.88
2022-10-17T21:01:29.278Z,102323.63
2022-10-17T21:03:59.675Z,102328.06
2022-10-17T21:06:30.330Z,102325.22
2022-10-17T21:08:57.924Z,102318.75
2022-10-17T21:11:26.406Z,102324.16
2022-10-17T21:13:58.158Z,102318.63
2022-10-17T21:16:26.569Z,102315.13
2022-10-17T21:18:54.772Z,102315.47
2022-10-17T21:21:24.759Z,102311.31
2022-10-17T21:23:53.696Z,102309.31
2022-10-17T21:26:22.249Z,102316.38
2022-10-17T21:28:50.433Z,102308.78
2022-10-17T21:31:19.516Z,102318.13
2022-10-17T21:33:57.287Z,102315.03
2022-10-17T21:36:25.310Z,102313.13
2022-10-17T21:38:54.987Z,102308.44
2022-10-17T21:41:24.250Z,102309.00
2022-10-17T21:43:59.184Z,102315.56
2022-10-17T21:46:26.688Z,102313.44
2022-10-17T21:48:54.044Z,102309.19
2022-10-17T21:51:22.770Z,102307.09
2022-10-17T21:53:51.159Z,102306.66
2022-10-17T21:56:19.619Z,102308.75
2022-10-17T21:58:47.782Z,102306.97
2022-10-17T22:01:20.501Z,102313.72
2022-10-17T22:03:48.862Z,102306.41
2022-10-17T22:06:38.698Z,102303.25
2022-10-17T22:09:07.310Z,102304.00
2022-10-17T22:11:35.575Z,102296.59
2022-10-17T22:14:04.618Z,102297.09
2022-10-17T22:16:32.931Z,102296.78
2022-10-17T22:19:04.919Z,102296.03
2022-10-17T22:21:34.886Z,102296.66
2022-10-17T22:24:04.296Z,102288.59
2022-10-17T22:26:32.515Z,102295.50
2022-10-17T22:29:00.197Z,102299.31
2022-10-17T22:31:27.679Z,102300.97
2022-10-17T22:33:55.619Z,102292.19
2022-10-17T22:36:22.900Z,102296.09
2022-10-17T22:38:50.245Z,102293.59
2022-10-17T22:41:18.091Z,102299.50
2022-10-17T22:43:46.124Z,102303.19
2022-10-17T22:46:14.425Z,102294.44
2022-10-17T22:48:42.179Z,102292.22
2022-10-17T22:51:09.534Z,102296.75
2022-10-17T22:53:37.984Z,102296.56
2022-10-17T22:56:07.386Z,102295.63
2022-10-17T22:58:35.495Z,102294.31
2022-10-17T23:01:04.305Z,102289.00
2022-10-17T23:03:32.245Z,102286.84
2022-10-17T23:06:02.970Z,102294.59
2022-10-17T23:08:30.379Z,102287.50
2022-10-17T23:10:58.525Z,102296.81
2022-10-17T23:13:26.096Z,102298.28
2022-10-17T23:15:54.335Z,102305.19
2022-10-17T23:18:22.698Z,102294.25
2022-10-17T23:20:50.943Z,102298.91
2022-10-17T23:23:18.862Z,102290.88
2022-10-17T23:25:46.220Z,102287.94
2022-10-17T23:28:14.100Z,102289.69
2022-10-17T23:30:41.454Z,102294.69
2022-10-17T23:33:10.471Z,102281.13
2022-10-17T23:35:38.270Z,102282.16
2022-10-17T23:38:05.664Z,102279.50
2022-10-17T23:40:34.784Z,102280.06
2022-10-17T23:43:02.902Z,102278.19
2022-10-17T23:45:35.980Z,102274.97
2022-10-17T23:48:05.702Z,102283.38
2022-10-17T23:50:32.959Z,102273.31
2022-10-17T23:53:00.622Z,102285.13
2022-10-17T23:55:28.295Z,102282.38
2022-10-17T23:57:56.606Z,102276.91
